sensor_id;sensor_type;location;lat;lon;timestamp;pressure;altitude;pressure_sealevel;temperature;humidity
3160;BME280;1591;51.486;7.146;2022-10-22T00:01:56;72100.09;;;15.45;100.00
3160;BME280;1591;51.486;7.146;2022-10-22T00:04:22;72121.25;;;15.58;100.00
3160;BME280;1591;51.486;7.146;2022-10-22T00:06:49;72116.75;;;15.57;100.00
3160;BME280;1591;51.486;7.146;2022-10-22T00:09:16;72106.34;;;15.48;100.00
3160;BME280;1591;51.486;7.146;2022-10-22T00:11:43;72114.16;;;15.50;100.00
3160;BME280;1591;51.486;7.146;2022-10-22T00:14:10;72116.28;;;15.40;100.00
3160;BME280;1591;51.486;7.146;2022-10-22T00:16:37;72110.38;;;15.51;100.00
3160;BME280;1591;51.486;7.146;2022-10-22T00:19:05;72097.94;;;15.45;100.00
3160;BME280;1591;51.486;7.146;2022-10-22T00:21:33;72120.25;;;15.60;100.00
3160;BME280;1591;51.486;7.146;2022-10-22T00:24:00;72118.47;;;15.58;100.00
3160;BME280;1591;51.486;7.146;2022-10-22T00:26:27;72129.50;;;15.58;100.00
3160;BME280;1591;51.486;7.146;2022-10-22T00:28:54;72132.09;;;15.65;100.00
3160;BME280;1591;51.486;7.146;2022-10-22T00:31:22;72117.78;;;15.55;100.00
3160;BME280;1591;51.486;7.146;2022-10-22T00:33:49;72118.78;;;15.63;100.00
3160;BME280;1591;51.486;7.146;2022-10-22T00:36:17;72124.13;;;15.61;100.00
3160;BME280;1591;51.486;7.146;2022-10-22T00:38:44;72070.84;;;15.62;100.00
3160;BME280;1591;51.486;7.146;2022-10-22T00:41:11;72129.94;;;15.66;100.00
3160;BME280;1591;51.486;7.146;2022-10-22T00:43:55;72121.66;;;15.56;100.00
3160;BME280;1591;51.486;7.146;2022-10-22T00:46:23;72107.34;;;15.46;100.00
3160;BME280;1591;51.486;7.146;2022-10-22T00:48:50;72115.88;;;15.51;100.00
3160;BME280;1591;51.486;7.146;2022-10-22T00:51:19;72119.22;;;15.61;100.00
3160;BME280;1591;51.486;7.146;2022-10-22T00:53:48;72126.03;;;15.65;100.00
3160;BME280;1591;51.486;7.146;2022-10-22T00:56:18;72130.38;;;15.73;100.00
3160;BME280;1591;51.486;7.146;2022-10-22T00:58:46;72122.84;;;15.67;100.00
3160;BME280;1591;51.486;7.146;2022-10-22T01:01:16;72117.19;;;15.55;100.00
3160;BME280;1591;51.486;7.146;2022-10-22T01:03:44;72086.75;;;15.24;100.00
3160;BME280;1591;51.486;7.146;2022-10-22T01:06:13;72071.69;;;15.20;100.00
3160;BME280;1591;51.486;7.146;2022-10-22T01:08:48;72050.41;;;15.04;100.00
3160;BME280;1591;51.486;7.146;2022-10-22T01:11:20;72046.63;;;14.96;100.00
3160;BME280;1591;51.486;7.146;2022-10-22T01:13:52;72054.00;;;15.00;100.00
3160;BME280;1591;51.486;7.146;2022-10-22T01:16:27;72043.72;;;14.93;100.00
3160;BME280;1591;51.486;7.146;2022-10-22T01:18:59;72048.50;;;15.00;100.00
3160;BME280;1591;51.486;7.146;2022-10-22T01:21:30;72054.47;;;15.07;100.00
3160;BME280;1591;51.486;7.146;2022-10-22T01:27:19;72072.09;;;15.08;100.00
3160;BME280;1591;51.486;7.146;2022-10-22T01:29:52;72069.94;;;15.19;100.00
3160;BME280;1591;51.486;7.146;2022-10-22T01:32:21;72070.97;;;15.17;100.00
3160;BME280;1591;51.486;7.146;2022-10-22T01:34:51;72080.94;;;15.19;100.00
3160;BME280;1591;51.486;7.146;2022-10-22T01:37:20;72055.47;;;15.06;100.00
3160;BME280;1591;51.486;7.146;2022-10-22T01:39:49;72045.06;;;14.97;100.00
3160;BME280;1591;51.486;7.146;2022-10-22T01:42:17;72046.78;;;14.98;100.00
3160;BME280;1591;51.486;7.146;2022-10-22T01:44:44;72044.47;;;14.96;100.00
3160;BME280;1591;51.486;7.146;2022-10-22T01:47:19;72060.25;;;15.12;100.00
3160;BME280;1591;51.486;7.146;2022-10-22T01:50:06;72103.13;;;15.40;100.00
3160;BME280;1591;51.486;7.146;2022-10-22T01:52:49;72110.81;;;15.49;100.00
3160;BME280;1591;51.486;7.146;2022-10-22T01:55:21;72108.06;;;15.49;100.00
3160;BME280;1591;51.486;7.146;2022-10-22T01:57:53;72110.09;;;15.56;100.00
3160;BME280;1591;51.486;7.146;2022-10-22T02:00:25;72099.09;;;15.46;100.00
3160;BME280;1591;51.486;7.146;2022-10-22T02:02:57;72084.44;;;15.31;100.00
3160;BME280;1591;51.486;7.146;2022-10-22T02:05:28;72100.69;;;15.45;100.00
3160;BME280;1591;51.486;7.146;2022-10-22T02:07:58;72132.56;;;15.54;100.00
3160;BME280;1591;51.486;7.146;2022-10-22T02:10:26;72097.34;;;15.45;100.00
3160;BME280;1591;51.486;7.146;2022-10-22T02:12:55;72103.28;;;15.43;100.00
3160;BME280;1591;51.486;7.146;2022-10-22T02:15:25;72105.03;;;15.44;100.00
3160;BME280;1591;51.486;7.146;2022-10-22T02:17:54;72097.50;;;15.47;100.00
3160;BME280;1591;51.486;7.146;2022-10-22T02:20:25;72096.31;;;15.37;100.00
3160;BME280;1591;51.486;7.146;2022-10-22T02:22:53;72107.91;;;15.56;100.00
3160;BME280;1591;51.486;7.146;2022-10-22T02:25:20;72115.59;;;15.46;100.00
3160;BME280;1591;51.486;7.146;2022-10-22T02:27:50;72103.00;;;15.47;100.00
3160;BME280;1591;51.486;7.146;2022-10-22T02:30:20;72095.78;;;15.46;100.00
3160;BME280;1591;51.486;7.146;2022-10-22T02:32:50;72072.84;;;15.21;100.00
3160;BME280;1591;51.486;7.146;2022-10-22T02:35:22;72083.56;;;15.16;100.00
3160;BME280;1591;51.486;7.146;2022-10-22T02:37:49;72065.75;;;15.12;100.00
3160;BME280;1591;51.486;7.146;2022-10-22T02:40:16;72055.06;;;15.08;100.00
3160;BME280;1591;51.486;7.146;2022-10-22T02:42:45;72073.13;;;15.17;100.00
3160;BME280;1591;51.486;7.146;2022-10-22T02:45:13;72067.31;;;15.02;100.00
3160;BME280;1591;51.486;7.146;2022-10-22T02:47:40;72051.41;;;15.02;100.00
3160;BME280;1591;51.486;7.146;2022-10-22T02:50:07;72063.72;;;15.06;100.00
3160;BME280;1591;51.486;7.146;2022-10-22T02:52:35;72036.06;;;14.94;100.00
3160;BME280;1591;51.486;7.146;2022-10-22T02:55:03;72027.25;;;14.84;100.00
3160;BME280;1591;51.486;7.146;2022-10-22T02:57:29;72018.56;;;14.76;100.00
3160;BME280;1591;51.486;7.146;2022-10-22T02:59:56;72037.22;;;14.76;100.00
3160;BME280;1591;51.486;7.146;2022-10-22T03:02:23;72035.50;;;14.84;100.00
3160;BME280;1591;51.486;7.146;2022-10-22T03:04:50;72049.97;;;14.96;100.00
3160;BME280;1591;51.486;7.146;2022-10-22T03:07:17;72091.84;;;15.35;100.00
3160;BME280;1591;51.486;7.146;2022-10-22T03:09:45;72110.09;;;15.46;100.00
3160;BME280;1591;51.486;7.146;2022-10-22T03:12:12;72104.84;;;15.42;100.00
3160;BME280;1591;51.486;7.146;2022-10-22T03:14:38;72093.41;;;15.34;100.00
3160;BME280;1591;51.486;7.146;2022-10-22T03:17:05;72042.16;;;14.94;100.00
3160;BME280;1591;51.486;7.146;2022-10-22T03:19:32;72057.19;;;14.98;100.00
3160;BME280;1591;51.486;7.146;2022-10-22T03:22:00;72032.31;;;14.86;100.00
3160;BME280;1591;51.486;7.146;2022-10-22T03:24:29;72027.69;;;14.82;100.00
3160;BME280;1591;51.486;7.146;2022-10-22T03:26:58;72061.97;;;15.04;100.00
3160;BME280;1591;51.486;7.146;2022-10-22T03:29:25;72081.53;;;15.19;100.00
3160;BME280;1591;51.486;7.146;2022-10-22T03:31:53;72108.63;;;15.40;100.00
3160;BME280;1591;51.486;7.146;2022-10-22T03:34:20;72084.72;;;15.27;100.00
3160;BME280;1591;51.486;7.146;2022-10-22T03:36:47;72068.50;;;15.22;100.00
3160;BME280;1591;51.486;7.146;2022-10-22T03:39:15;72095.44;;;15.22;100.00
3160;BME280;1591;51.486;7.146;2022-10-22T03:41:43;72079.50;;;15.22;100.00
3160;BME280;1591;51.486;7.146;2022-10-22T03:44:11;72079.94;;;15.20;100.00
3160;BME280;1591;51.486;7.146;2022-10-22T03:46:38;72079.78;;;15.18;100.00
3160;BME280;1591;51.486;7.146;2022-10-22T03:49:05;72080.38;;;15.18;100.00
3160;BME280;1591;51.486;7.146;2022-10-22T03:51:32;72082.13;;;15.20;100.00
3160;BME280;1591;51.486;7.146;2022-10-22T03:54:00;72081.53;;;15.19;100.00
3160;BME280;1591;51.486;7.146;2022-10-22T03:56:27;72059.06;;;14.92;100.00
3160;BME280;1591;51.486;7.146;2022-10-22T03:58:55;72034.03;;;14.87;100.00
3160;BME280;1591;51.486;7.146;2022-10-22T04:01:24;72075.31;;;15.16;100.00
3160;BME280;1591;51.486;7.146;2022-10-22T04:03:51;72089.66;;;15.26;100.00
3160;BME280;1591;51.486;7.146;2022-10-22T04:06:18;72040.13;;;14.88;100.00
3160;BME280;1591;51.486;7.146;2022-10-22T04:08:45;72037.38;;;14.88;100.00
3160;BME280;1591;51.486;7.146;2022-10-22T04:11:13;72049.69;;;15.01;100.00
3160;BME280;1591;51.486;7.146;2022-10-22T04:13:40;72058.09;;;15.03;100.00
3160;BME280;1591;51.486;7.146;2022-10-22T04:16:08;72063.31;;;15.08;100.00
3160;BME280;1591;51.486;7.146;2022-10-22T04:18:36;72067.94;;;15.12;100.00
3160;BME280;1591;51.486;7.146;2022-10-22T04:21:04;72065.03;;;15.09;100.00
3160;BME280;1591;51.486;7.146;2022-10-22T04:23:31;72045.47;;;14.95;100.00
3160;BME280;1591;51.486;7.146;2022-10-22T04:25:58;72067.50;;;15.14;100.00
3160;BME280;1591;51.486;7.146;2022-10-22T04:28:26;72070.25;;;15.14;100.00
3160;BME280;1591;51.486;7.146;2022-10-22T04:30:52;72067.34;;;15.21;100.00
3160;BME280;1591;51.486;7.146;2022-10-22T04:33:19;72081.81;;;15.24;100.00
3160;BME280;1591;51.486;7.146;2022-10-22T04:35:48;72123.25;;;15.36;100.00
3160;BME280;1591;51.486;7.146;2022-10-22T04:38:14;72098.03;;;15.38;100.00
3160;BME280;1591;51.486;7.146;2022-10-22T04:40:41;72092.97;;;15.36;100.00
3160;BME280;1591;51.486;7.146;2022-10-22T04:43:08;72110.53;;;15.54;100.00
3160;BME280;1591;51.486;7.146;2022-10-22T04:45:35;72121.66;;;15.56;100.00
3160;BME280;1591;51.486;7.146;2022-10-22T04:48:02;72117.91;;;15.58;100.00
3160;BME280;1591;51.486;7.146;2022-10-22T04:50:29;72123.00;;;15.60;100.00
3160;BME280;1591;51.486;7.146;2022-10-22T04:52:57;72133.41;;;15.59;100.00
3160;BME280;1591;51.486;7.146;2022-10-22T04:55:24;72101.69;;;15.53;100.00
3160;BME280;1591;51.486;7.146;2022-10-22T04:57:50;72103.16;;;15.50;100.00
3160;BME280;1591;51.486;7.146;2022-10-22T05:00:17;72121.25;;;15.58;100.00
3160;BME280;1591;51.486;7.146;2022-10-22T05:02:48;72114.72;;;15.50;100.00
3160;BME280;1591;51.486;7.146;2022-10-22T05:05:15;72117.06;;;15.62;100.00
3160;BME280;1591;51.486;7.146;2022-10-22T05:07:41;72127.19;;;15.66;100.00
3160;BME280;1591;51.486;7.146;2022-10-22T05:10:10;72125.03;;;15.66;100.00
3160;BME280;1591;51.486;7.146;2022-10-22T05:12:36;72112.97;;;15.58;100.00
3160;BME280;1591;51.486;7.146;2022-10-22T05:15:04;72110.97;;;15.61;100.00
3160;BME280;1591;51.486;7.146;2022-10-22T05:17:34;72126.59;;;15.65;100.00
3160;BME280;1591;51.486;7.146;2022-10-22T05:20:01;72129.66;;;15.70;100.00
3160;BME280;1591;51.486;7.146;2022-10-22T05:22:28;72120.66;;;15.58;100.00
3160;BME280;1591;51.486;7.146;2022-10-22T05:24:55;72109.19;;;15.41;100.00
3160;BME280;1591;51.486;7.146;2022-10-22T05:27:23;72033.78;;;15.30;100.00
3160;BME280;1591;51.486;7.146;2022-10-22T05:29:50;72084.44;;;15.31;100.00
3160;BME280;1591;51.486;7.146;2022-10-22T05:32:16;72078.66;;;15.26;100.00
3160;BME280;1591;51.486;7.146;2022-10-22T05:34:43;72079.38;;;15.20;100.00
3160;BME280;1591;51.486;7.146;2022-10-22T05:37:10;72062.44;;;15.12;100.00
3160;BME280;1591;51.486;7.146;2022-10-22T05:39:37;72054.91;;;15.05;100.00
3160;BME280;1591;51.486;7.146;2022-10-22T05:42:05;72052.56;;;14.94;100.00
3160;BME280;1591;51.486;7.146;2022-10-22T05:44:33;72072.81;;;15.02;100.00
3160;BME280;1591;51.486;7.146;2022-10-22T05:47:00;72051.84;;;15.00;100.00
3160;BME280;1591;51.486;7.146;2022-10-22T05:49:27;72035.91;;;14.91;100.00
3160;BME280;1591;51.486;7.146;2022-10-22T05:51:54;72041.41;;;14.91;100.00
3160;BME280;1591;51.486;7.146;2022-10-22T05:54:20;72037.66;;;14.93;100.00
3160;BME280;1591;51.486;7.146;2022-10-22T05:56:47;72026.09;;;14.83;100.00
3160;BME280;1591;51.486;7.146;2022-10-22T05:59:14;72017.13;;;14.70;100.00
3160;BME280;1591;51.486;7.146;2022-10-22T06:01:42;72027.53;;;14.70;100.00
3160;BME280;1591;51.486;7.146;2022-10-22T06:04:11;72020.84;;;14.69;100.00
3160;BME280;1591;51.486;7.146;2022-10-22T06:06:39;72007.28;;;14.62;100.00
3160;BME280;1591;51.486;7.146;2022-10-22T06:09:12;72015.22;;;14.66;100.00
3160;BME280;1591;51.486;7.146;2022-10-22T06:11:40;72036.47;;;14.73;100.00
3160;BME280;1591;51.486;7.146;2022-10-22T06:14:08;72018.09;;;14.69;100.00
3160;BME280;1591;51.486;7.146;2022-10-22T06:16:35;72001.31;;;14.54;100.00
3160;BME280;1591;51.486;7.146;2022-10-22T06:19:03;72000.72;;;14.54;100.00
3160;BME280;1591;51.486;7.146;2022-10-22T06:21:31;72019.13;;;14.77;100.00
3160;BME280;1591;51.486;7.146;2022-10-22T06:23:59;72044.91;;;14.85;100.00
3160;BME280;1591;51.486;7.146;2022-10-22T06:26:26;72056.47;;;15.04;100.00
3160;BME280;1591;51.486;7.146;2022-10-22T06:28:53;72045.06;;;14.97;100.00
3160;BME280;1591;51.486;7.146;2022-10-22T06:31:20;72045.19;;;14.99;100.00
3160;BME280;1591;51.486;7.146;2022-10-22T06:33:47;72040.25;;;15.00;100.00
3160;BME280;1591;51.486;7.146;2022-10-22T06:36:17;72040.97;;;14.93;100.00
3160;BME280;1591;51.486;7.146;2022-10-22T06:38:44;72055.19;;;15.01;100.00
3160;BME280;1591;51.486;7.146;2022-10-22T06:41:12;72054.31;;;15.05;100.00
3160;BME280;1591;51.486;7.146;2022-10-22T06:43:40;72058.66;;;15.04;100.00
3160;BME280;1591;51.486;7.146;2022-10-22T06:46:09;72074.88;;;15.18;100.00
3160;BME280;1591;51.486;7.146;2022-10-22T06:48:36;72091.22;;;15.25;100.00
3160;BME280;1591;51.486;7.146;2022-10-22T06:51:05;72106.03;;;15.43;100.00
3160;BME280;1591;51.486;7.146;2022-10-22T06:53:34;72122.09;;;15.54;100.00
3160;BME280;1591;51.486;7.146;2022-10-22T06:56:04;72119.78;;;15.71;100.00
3160;BME280;1591;51.486;7.146;2022-10-22T06:58:31;72128.06;;;15.71;100.00
3160;BME280;1591;51.486;7.146;2022-10-22T07:01:01;72143.84;;;15.68;100.00
3160;BME280;1591;51.486;7.146;2022-10-22T07:03:29;72130.22;;;15.71;100.00
3160;BME280;1591;51.486;7.146;2022-10-22T07:05:58;72145.72;;;15.72;100.00
3160;BME280;1591;51.486;7.146;2022-10-22T07:08:25;72122.84;;;15.67;100.00
3160;BME280;1591;51.486;7.146;2022-10-22T07:10:54;72123.13;;;15.62;100.00
3160;BME280;1591;51.486;7.146;2022-10-22T07:13:21;72125.28;;;15.71;100.00
3160;BME280;1591;51.486;7.146;2022-10-22T07:15:51;72124.59;;;15.68;100.00
3160;BME280;1591;51.486;7.146;2022-10-22T07:18:18;72123.84;;;15.65;100.00
3160;BME280;1591;51.486;7.146;2022-10-22T07:20:46;72133.13;;;15.73;100.00
3160;BME280;1591;51.486;7.146;2022-10-22T07:23:13;72140.81;;;15.82;100.00
3160;BME280;1591;51.486;7.146;2022-10-22T07:25:40;72139.78;;;15.84;100.00
3160;BME280;1591;51.486;7.146;2022-10-22T07:28:08;72150.81;;;15.94;100.00
3160;BME280;1591;51.486;7.146;2022-10-22T07:30:36;72159.94;;;15.99;100.00
3160;BME280;1591;51.486;7.146;2022-10-22T07:33:03;72168.94;;;16.02;100.00
3160;BME280;1591;51.486;7.146;2022-10-22T07:35:30;72183.13;;;16.10;100.00
3160;BME280;1591;51.486;7.146;2022-10-22T07:37:57;72170.22;;;16.06;100.00
3160;BME280;1591;51.486;7.146;2022-10-22T07:40:24;72182.84;;;16.14;100.00
3160;BME280;1591;51.486;7.146;2022-10-22T07:42:50;72188.47;;;16.26;100.00
3160;BME280;1591;51.486;7.146;2022-10-22T07:45:18;72197.91;;;16.37;100.00
3160;BME280;1591;51.486;7.146;2022-10-22T07:47:46;72208.47;;;16.39;100.00
3160;BME280;1591;51.486;7.146;2022-10-22T07:50:13;72221.09;;;16.57;100.00
3160;BME280;1591;51.486;7.146;2022-10-22T07:52:40;72258.53;;;16.75;100.00
3160;BME280;1591;51.486;7.146;2022-10-22T07:55:07;72257.94;;;16.84;100.00
3160;BME280;1591;51.486;7.146;2022-10-22T07:57:35;72265.63;;;16.93;100.00
3160;BME280;1591;51.486;7.146;2022-10-22T08:00:03;72265.91;;;16.98;100.00
3160;BME280;1591;51.486;7.146;2022-10-22T08:02:31;72280.25;;;16.99;100.00
3160;BME280;1591;51.486;7.146;2022-10-22T08:04:58;72303.91;;;17.17;100.00
3160;BME280;1591;51.486;7.146;2022-10-22T08:07:25;72297.66;;;17.14;100.00
3160;BME280;1591;51.486;7.146;2022-10-22T08:09:52;72293.19;;;17.12;100.00
3160;BME280;1591;51.486;7.146;2022-10-22T08:12:19;72283.03;;;17.08;100.00
3160;BME280;1591;51.486;7.146;2022-10-22T08:14:46;72283.59;;;17.09;100.00
3160;BME280;1591;51.486;7.146;2022-10-22T08:17:13;72325.25;;;17.42;100.00
3160;BME280;1591;51.486;7.146;2022-10-22T08:19:41;72354.28;;;17.68;100.00
3160;BME280;1591;51.486;7.146;2022-10-22T08:22:08;72362.69;;;17.70;100.00
3160;BME280;1591;51.486;7.146;2022-10-22T08:24:35;72374.44;;;17.83;100.00
3160;BME280;1591;51.486;7.146;2022-10-22T08:27:02;72385.19;;;17.97;100.00
3160;BME280;1591;51.486;7.146;2022-10-22T08:29:29;72408.97;;;18.08;100.00
3160;BME280;1591;51.486;7.146;2022-10-22T08:31:56;72397.22;;;18.05;100.00
3160;BME280;1591;51.486;7.146;2022-10-22T08:34:22;72384.72;;;17.99;100.00
3160;BME280;1591;51.486;7.146;2022-10-22T08:36:51;72387.50;;;17.99;100.00
3160;BME280;1591;51.486;7.146;2022-10-22T08:39:18;72388.81;;;17.93;100.00
3160;BME280;1591;51.486;7.146;2022-10-22T08:41:48;72352.66;;;17.69;100.00
3160;BME280;1591;51.486;7.146;2022-10-22T08:47:26;72376.19;;;17.84;100.00
3160;BME280;1591;51.486;7.146;2022-10-22T08:49:58;72360.81;;;17.66;100.00
3160;BME280;1591;51.486;7.146;2022-10-22T08:52:27;72364.13;;;17.76;100.00
3160;BME280;1591;51.486;7.146;2022-10-22T08:54:55;72357.78;;;17.61;100.00
3160;BME280;1591;51.486;7.146;2022-10-22T08:57:32;72340.34;;;17.56;100.00
3160;BME280;1591;51.486;7.146;2022-10-22T09:00:08;72326.09;;;17.48;100.00
3160;BME280;1591;51.486;7.146;2022-10-22T09:02:39;72328.25;;;17.47;100.00
3160;BME280;1591;51.486;7.146;2022-10-22T09:05:21;72358.91;;;17.72;100.00
3160;BME280;1591;51.486;7.146;2022-10-22T09:07:53;72372.72;;;17.72;100.00
3160;BME280;1591;51.486;7.146;2022-10-22T09:10:21;72345.84;;;17.56;100.00
3160;BME280;1591;51.486;7.146;2022-10-22T09:12:51;72369.53;;;17.74;100.00
3160;BME280;1591;51.486;7.146;2022-10-22T09:15:46;72343.38;;;17.61;100.00
3160;BME280;1591;51.486;7.146;2022-10-22T09:18:23;72340.22;;;17.53;100.00
3160;BME280;1591;51.486;7.146;2022-10-22T09:20:55;72341.94;;;17.55;100.00
3160;BME280;1591;51.486;7.146;2022-10-22T09:23:30;72344.81;;;17.67;100.00
3160;BME280;1591;51.486;7.146;2022-10-22T09:25:58;72354.84;;;17.68;100.00
3160;BME280;1591;51.486;7.146;2022-10-22T09:28:25;72352.94;;;17.74;100.00
3160;BME280;1591;51.486;7.146;2022-10-22T09:30:52;72378.22;;;17.91;100.00
3160;BME280;1591;51.486;7.146;2022-10-22T09:33:23;72400.56;;;18.05;100.00
3160;BME280;1591;51.486;7.146;2022-10-22T09:35:53;72396.78;;;18.07;100.00
3160;BME280;1591;51.486;7.146;2022-10-22T09:38:24;72402.31;;;18.07;100.00
3160;BME280;1591;51.486;7.146;2022-10-22T09:40:54;72399.53;;;18.07;100.00
3160;BME280;1591;51.486;7.146;2022-10-22T09:43:21;72418.25;;;18.25;100.00
3160;BME280;1591;51.486;7.146;2022-10-22T09:45:54;72418.25;;;18.25;100.00
3160;BME280;1591;51.486;7.146;2022-10-22T09:48:26;72406.06;;;18.15;100.00
3160;BME280;1591;51.486;7.146;2022-10-22T09:50:58;72412.03;;;18.13;100.00
3160;BME280;1591;51.486;7.146;2022-10-22T09:53:27;72402.72;;;18.14;100.00
3160;BME280;1591;51.486;7.146;2022-10-22T09:55:58;72421.16;;;18.28;100.00
3160;BME280;1591;51.486;7.146;2022-10-22T09:58:26;72420.00;;;18.27;100.00
3160;BME280;1591;51.486;7.146;2022-10-22T10:00:55;72408.53;;;18.19;100.00
3160;BME280;1591;51.486;7.146;2022-10-22T10:03:25;72417.66;;;18.25;100.00
3160;BME280;1591;51.486;7.146;2022-10-22T10:05:54;72393.28;;;18.04;100.00
3160;BME280;1591;51.486;7.146;2022-10-22T10:08:21;72430.72;;;18.41;100.00
3160;BME280;1591;51.486;7.146;2022-10-22T10:10:50;72422.06;;;18.24;100.00
3160;BME280;1591;51.486;7.146;2022-10-22T10:13:34;72421.75;;;18.19;100.00
3160;BME280;1591;51.486;7.146;2022-10-22T10:16:08;72401.72;;;18.06;100.00
3160;BME280;1591;51.486;7.146;2022-10-22T10:18:54;72388.66;;;18.00;100.00
3160;BME280;1591;51.486;7.146;2022-10-22T10:21:28;72411.75;;;18.08;100.00
3160;BME280;1591;51.486;7.146;2022-10-22T10:23:58;72409.41;;;18.15;100.00
3160;BME280;1591;51.486;7.146;2022-10-22T10:26:30;72425.81;;;18.32;100.00
3160;BME280;1591;51.486;7.146;2022-10-22T10:29:12;72439.31;;;18.46;100.00
3160;BME280;1591;51.486;7.146;2022-10-22T10:32:01;72447.91;;;18.51;100.00
3160;BME280;1591;51.486;7.146;2022-10-22T10:34:36;72452.41;;;18.43;100.00
3160;BME280;1591;51.486;7.146;2022-10-22T10:37:14;72427.41;;;18.31;100.00
3160;BME280;1591;51.486;7.146;2022-10-22T10:39:55;72406.22;;;18.08;100.00
3160;BME280;1591;51.486;7.146;2022-10-22T10:42:31;72415.78;;;18.21;100.00
3160;BME280;1591;51.486;7.146;2022-10-22T10:45:09;72392.00;;;18.00;100.00
3160;BME280;1591;51.486;7.146;2022-10-22T10:48:03;72383.75;;;17.91;100.00
3160;BME280;1591;51.486;7.146;2022-10-22T10:50:39;72411.00;;;18.14;100.00
3160;BME280;1591;51.486;7.146;2022-10-22T10:53:13;72437.72;;;18.38;100.00
3160;BME280;1591;51.486;7.146;2022-10-22T10:55:52;72425.06;;;18.29;100.00
3160;BME280;1591;51.486;7.146;2022-10-22T10:58:23;72441.63;;;18.48;100.00
3160;BME280;1591;51.486;7.146;2022-10-22T11:00:55;72472.59;;;18.68;100.00
3160;BME280;1591;51.486;7.146;2022-10-22T11:03:39;72460.09;;;18.62;100.00
3160;BME280;1591;51.486;7.146;2022-10-22T11:06:12;72469.53;;;18.72;100.00
3160;BME280;1591;51.486;7.146;2022-10-22T11:08:42;72451.38;;;18.54;100.00
3160;BME280;1591;51.486;7.146;2022-10-22T11:11:17;72462.28;;;18.61;100.00
3160;BME280;1591;51.486;7.146;2022-10-22T11:13:48;72521.00;;;18.93;100.00
3160;BME280;1591;51.486;7.146;2022-10-22T11:16:22;72496.81;;;18.96;100.00
3160;BME280;1591;51.486;7.146;2022-10-22T11:18:52;72498.13;;;18.99;100.00
3160;BME280;1591;51.486;7.146;2022-10-22T11:21:26;72515.72;;;19.08;100.00
3160;BME280;1591;51.486;7.146;2022-10-22T11:23:55;72494.47;;;18.94;100.00
3160;BME280;1591;51.486;7.146;2022-10-22T11:26:33;72497.16;;;18.82;100.00
3160;BME280;1591;51.486;7.146;2022-10-22T11:29:03;72531.69;;;19.17;100.00
3160;BME280;1591;51.486;7.146;2022-10-22T11:31:33;72486.03;;;18.91;100.00
3160;BME280;1591;51.486;7.146;2022-10-22T11:34:03;72473.88;;;18.71;100.00
3160;BME280;1591;51.486;7.146;2022-10-22T11:36:33;72487.50;;;18.88;100.00
3160;BME280;1591;51.486;7.146;2022-10-22T11:39:02;72495.09;;;18.85;100.00
3160;BME280;1591;51.486;7.146;2022-10-22T11:41:30;72492.88;;;18.95;100.00
3160;BME280;1591;51.486;7.146;2022-10-22T11:44:07;72494.94;;;18.92;100.00
3160;BME280;1591;51.486;7.146;2022-10-22T11:46:44;72488.53;;;18.86;100.00
3160;BME280;1591;51.486;7.146;2022-10-22T11:49:18;72504.81;;;19.00;100.00
3160;BME280;1591;51.486;7.146;2022-10-22T11:51:45;72496.94;;;18.98;100.00
3160;BME280;1591;51.486;7.146;2022-10-22T11:54:37;72499.88;;;18.91;100.00
3160;BME280;1591;51.486;7.146;2022-10-22T11:57:18;72504.81;;;19.00;100.00
3160;BME280;1591;51.486;7.146;2022-10-22T11:59:49;72521.34;;;19.20;100.00
3160;BME280;1591;51.486;7.146;2022-10-22T12:02:41;72485.50;;;18.81;100.00
3160;BME280;1591;51.486;7.146;2022-10-22T12:05:32;72475.06;;;18.72;100.00
3160;BME280;1591;51.486;7.146;2022-10-22T12:08:11;72453.44;;;18.51;100.00
3160;BME280;1591;51.486;7.146;2022-10-22T12:11:04;72461.09;;;18.60;100.00
3160;BME280;1591;51.486;7.146;2022-10-22T12:13:49;72472.16;;;18.70;100.00
3160;BME280;1591;51.486;7.146;2022-10-22T12:16:21;72484.50;;;18.83;100.00
3160;BME280;1591;51.486;7.146;2022-10-22T12:18:57;72519.31;;;19.13;100.00
3160;BME280;1591;51.486;7.146;2022-10-22T12:21:27;72517.28;;;19.16;100.00
3160;BME280;1591;51.486;7.146;2022-10-22T12:23:54;72493.19;;;18.90;100.00
3160;BME280;1591;51.486;7.146;2022-10-22T12:26:24;72508.31;;;19.03;100.00
3160;BME280;1591;51.486;7.146;2022-10-22T12:28:56;72507.13;;;19.02;100.00
3160;BME280;1591;51.486;7.146;2022-10-22T12:31:24;72503.50;;;18.97;100.00
3160;BME280;1591;51.486;7.146;2022-10-22T12:33:59;72498.13;;;18.99;100.00
3160;BME280;1591;51.486;7.146;2022-10-22T12:36:27;72498.69;;;19.00;100.00
3160;BME280;1591;51.486;7.146;2022-10-22T12:38:58;72483.03;;;18.77;100.00
3160;BME280;1591;51.486;7.146;2022-10-22T12:41:30;72500.75;;;18.97;100.00
3160;BME280;1591;51.486;7.146;2022-10-22T12:43:58;72505.22;;;19.08;100.00
3160;BME280;1591;51.486;7.146;2022-10-22T12:46:27;72506.97;;;19.10;100.00
3160;BME280;1591;51.486;7.146;2022-10-22T12:49:01;72522.25;;;19.16;100.00
3160;BME280;1591;51.486;7.146;2022-10-22T12:51:30;72524.41;;;19.15;100.00
3160;BME280;1591;51.486;7.146;2022-10-22T12:54:02;72506.25;;;19.07;100.00
3160;BME280;1591;51.486;7.146;2022-10-22T12:56:34;72522.09;;;19.13;100.00
3160;BME280;1591;51.486;7.146;2022-10-22T12:59:05;72505.53;;;19.03;100.00
3160;BME280;1591;51.486;7.146;2022-10-22T13:01:38;72505.97;;;19.01;100.00
3160;BME280;1591;51.486;7.146;2022-10-22T13:04:20;72477.19;;;18.81;100.00
3160;BME280;1591;51.486;7.146;2022-10-22T13:06:49;72496.53;;;18.91;100.00
3160;BME280;1591;51.486;7.146;2022-10-22T13:09:20;72501.78;;;18.95;100.00
3160;BME280;1591;51.486;7.146;2022-10-22T13:11:51;72505.41;;;18.91;100.00
3160;BME280;1591;51.486;7.146;2022-10-22T13:14:27;72487.38;;;18.85;100.00
3160;BME280;1591;51.486;7.146;2022-10-22T13:17:11;72487.66;;;18.90;100.00
3160;BME280;1591;51.486;7.146;2022-10-22T13:19:46;72495.38;;;18.90;100.00
3160;BME280;1591;51.486;7.146;2022-10-22T13:22:28;72500.88;;;18.99;100.00
3160;BME280;1591;51.486;7.146;2022-10-22T13:24:56;72491.00;;;18.91;100.00
3160;BME280;1591;51.486;7.146;2022-10-22T13:27:26;72490.28;;;18.88;100.00
3160;BME280;1591;51.486;7.146;2022-10-22T13:29:54;72456.59;;;18.59;100.00
3160;BME280;1591;51.486;7.146;2022-10-22T13:32:28;72443.81;;;18.48;100.00